createdAt,value
2022-08-17T00:00:43.194Z,20.80
2022-08-17T00:03:29.897Z,20.78
2022-08-17T00:06:18.860Z,20.70
2022-08-17T00:09:00.962Z,20.70
2022-08-17T00:11:40.503Z,20.60
2022-08-17T00:14:19.047Z,20.60
2022-08-17T00:16:57.264Z,20.60
2022-08-17T00:19:27.051Z,20.60
2022-08-17T00:22:31.233Z,20.50
2022-08-17T00:24:49.607Z,20.50
2022-08-17T00:27:19.095Z,20.50
2022-08-17T00:29:48.516Z,20.50
2022-08-17T00:33:14.162Z,20.50
2022-08-17T00:35:10.684Z,20.50
2022-08-17T00:37:39.800Z,20.50
2022-08-17T00:40:13.335Z,20.50
2022-08-17T00:42:43.819Z,20.50
2022-08-17T00:45:16.125Z,20.50
2022-08-17T00:47:45.234Z,20.50
2022-08-17T00:50:19.431Z,20.40
2022-08-17T00:52:56.644Z,20.40
2022-08-17T00:55:26.798Z,20.32
2022-08-17T00:58:00.658Z,20.30
2022-08-17T01:00:38.382Z,20.10
2022-08-17T01:03:22.650Z,20.10
2022-08-17T01:05:55.383Z,20.00
2022-08-17T01:08:27.793Z,20.00
2022-08-17T01:11:02.434Z,19.94
2022-08-17T01:13:40.967Z,20.00
2022-08-17T01:16:22.230Z,20.00
2022-08-17T01:18:55.464Z,20.10
2022-08-17T01:22:05.787Z,20.20
2022-08-17T01:24:37.649Z,20.10
2022-08-17T01:27:10.334Z,20.10
2022-08-17T01:29:44.882Z,20.10
2022-08-17T01:32:14.155Z,20.10
2022-08-17T01:34:50.680Z,20.10
2022-08-17T01:37:30.308Z,20.00
2022-08-17T01:40:14.561Z,20.00
2022-08-17T01:42:59.111Z,20.00
2022-08-17T01:45:34.042Z,20.02
2022-08-17T01:48:02.936Z,20.10
2022-08-17T01:50:38.197Z,20.20
2022-08-17T01:53:17.378Z,20.26
2022-08-17T01:56:05.930Z,20.20
2022-08-17T01:58:36.698Z,20.20
2022-08-17T02:01:07.705Z,20.10
2022-08-17T02:03:38.351Z,20.10
2022-08-17T02:06:26.983Z,20.00
2022-08-17T02:09:02.672Z,19.90
2022-08-17T02:11:38.134Z,19.90
2022-08-17T02:14:11.230Z,19.90
2022-08-17T02:16:42.739Z,19.90
2022-08-17T02:19:16.440Z,20.00
2022-08-17T02:21:50.205Z,20.00
2022-08-17T02:24:58.219Z,19.90
2022-08-17T02:27:23.664Z,20.00
2022-08-17T02:29:52.800Z,20.00
2022-08-17T02:32:27.362Z,20.06
2022-08-17T02:34:58.326Z,20.10
2022-08-17T02:37:29.002Z,20.10
2022-08-17T02:39:59.815Z,20.10
2022-08-17T02:42:40.096Z,20.20
2022-08-17T02:45:23.366Z,20.20
2022-08-17T02:47:53.382Z,20.20
2022-08-17T02:50:24.862Z,20.20
2022-08-17T02:53:01.561Z,20.12
2022-08-17T02:55:38.243Z,20.20
2022-08-17T02:58:10.929Z,20.20
2022-08-17T03:00:49.512Z,20.20
2022-08-17T03:03:21.471Z,20.16
2022-08-17T03:05:53.644Z,20.10
2022-08-17T03:08:23.659Z,20.10
2022-08-17T03:10:52.448Z,20.10
2022-08-17T03:13:21.440Z,20.10
2022-08-17T03:15:51.151Z,20.20
2022-08-17T03:18:24.703Z,20.28
2022-08-17T03:21:01.466Z,20.30
2022-08-17T03:23:32.602Z,20.36
2022-08-17T03:26:01.769Z,20.38
2022-08-17T03:28:31.077Z,20.30
2022-08-17T03:31:00.268Z,20.20
2022-08-17T03:33:29.551Z,20.10
2022-08-17T03:35:59.502Z,20.00
2022-08-17T03:38:28.477Z,20.00
2022-08-17T03:40:59.764Z,20.00
2022-08-17T03:43:31.658Z,20.00
2022-08-17T03:46:28.341Z,20.00
2022-08-17T03:49:27.736Z,20.00
2022-08-17T03:52:17.313Z,20.00
2022-08-17T03:55:05.151Z,20.00
2022-08-17T03:57:33.939Z,20.00
2022-08-17T04:00:02.829Z,20.00
2022-08-17T04:02:43.341Z,20.10
2022-08-17T04:05:12.185Z,20.10
2022-08-17T04:07:41.486Z,20.16
2022-08-17T04:10:10.790Z,20.20
2022-08-17T04:12:53.404Z,20.30
2022-08-17T04:15:23.523Z,20.30
2022-08-17T04:17:53.194Z,20.40
2022-08-17T04:20:24.370Z,20.50
2022-08-17T04:23:11.194Z,20.50
2022-08-17T04:25:45.178Z,20.60
2022-08-17T04:28:16.000Z,20.60
2022-08-17T04:30:47.060Z,20.70
2022-08-17T04:33:26.340Z,20.70
2022-08-17T04:36:01.963Z,20.80
2022-08-17T04:38:35.838Z,20.80
2022-08-17T04:41:24.426Z,20.90
2022-08-17T04:43:56.424Z,21.00
2022-08-17T04:46:29.872Z,21.08
2022-08-17T04:49:00.344Z,21.10
2022-08-17T04:51:54.536Z,21.30
2022-08-17T04:54:25.748Z,21.56
2022-08-17T04:56:54.536Z,21.78
2022-08-17T04:59:23.735Z,22.00
2022-08-17T05:01:53.134Z,22.20
2022-08-17T05:04:33.495Z,22.42
2022-08-17T05:07:04.904Z,22.60
2022-08-17T05:09:33.945Z,22.80
2022-08-17T05:12:03.656Z,23.10
2022-08-17T05:14:33.504Z,23.30
2022-08-17T05:17:07.165Z,23.48
2022-08-17T05:19:39.957Z,23.70
2022-08-17T05:22:08.994Z,23.90
2022-08-17T05:24:40.696Z,24.10
2022-08-17T05:27:16.764Z,24.38
2022-08-17T05:29:47.607Z,24.60
2022-08-17T05:32:37.820Z,24.80
2022-08-17T05:35:07.231Z,25.10
2022-08-17T05:37:35.991Z,25.30
2022-08-17T05:40:06.071Z,25.46
2022-08-17T05:42:34.902Z,25.66
2022-08-17T05:45:13.049Z,25.80
2022-08-17T05:47:47.408Z,26.14
2022-08-17T05:50:42.843Z,26.52
2022-08-17T05:53:25.970Z,26.90
2022-08-17T05:56:29.226Z,27.28
2022-08-17T05:59:24.476Z,27.80
2022-08-17T06:02:32.997Z,28.38
2022-08-17T06:05:46.945Z,29.00
2022-08-17T06:08:53.221Z,29.52
2022-08-17T06:11:40.332Z,29.80
2022-08-17T06:14:47.727Z,29.70
2022-08-17T06:17:20.579Z,29.86
2022-08-17T06:20:00.665Z,29.90
2022-08-17T06:22:46.442Z,29.90
2022-08-17T06:25:35.315Z,30.12
2022-08-17T06:28:15.048Z,30.50
2022-08-17T06:31:00.602Z,31.10
2022-08-17T06:33:37.149Z,31.80
2022-08-17T06:36:57.718Z,32.24
2022-08-17T06:39:33.858Z,32.82
2022-08-17T06:43:05.545Z,33.28
2022-08-17T06:45:49.643Z,33.30
2022-08-17T06:48:47.094Z,32.94
2022-08-17T06:51:27.717Z,32.50
2022-08-17T06:54:18.298Z,32.14
2022-08-17T06:57:23.666Z,31.72
2022-08-17T07:00:18.464Z,31.30
2022-08-17T07:02:59.950Z,30.90
2022-08-17T07:05:45.534Z,30.60
2022-08-17T07:09:10.635Z,30.60
2022-08-17T07:12:05.040Z,30.40
2022-08-17T07:14:54.098Z,30.58
2022-08-17T07:17:36.995Z,30.88
2022-08-17T07:20:23.523Z,30.90
2022-08-17T07:23:10.642Z,31.24
2022-08-17T07:25:39.434Z,32.28
2022-08-17T07:28:08.630Z,33.06
2022-08-17T07:30:54.233Z,33.60
2022-08-17T07:33:31.604Z,33.94
2022-08-17T07:36:01.315Z,34.34
2022-08-17T07:38:35.798Z,34.82
2022-08-17T07:41:10.985Z,35.56
2022-08-17T07:43:42.944Z,35.80
2022-08-17T07:46:30.224Z,35.98
2022-08-17T07:49:07.765Z,36.30
2022-08-17T07:51:48.429Z,36.50
2022-08-17T07:54:18.857Z,36.50
2022-08-17T07:57:03.926Z,36.76
2022-08-17T07:59:36.356Z,37.00
2022-08-17T08:02:17.965Z,36.54
2022-08-17T08:05:01.387Z,35.80
2022-08-17T08:07:40.458Z,36.14
2022-08-17T08:10:25.631Z,35.72
2022-08-17T08:13:22.372Z,35.08
2022-08-17T08:15:55.728Z,35.86
2022-08-17T08:18:54.996Z,35.60
2022-08-17T08:21:46.678Z,35.48
2022-08-17T08:24:30.939Z,34.66
2022-08-17T08:27:31.279Z,34.40
2022-08-17T08:30:10.311Z,35.24
2022-08-17T08:33:04.595Z,35.84
2022-08-17T08:35:39.936Z,36.68
2022-08-17T08:38:31.357Z,36.90
2022-08-17T08:41:32.504Z,37.20
2022-08-17T08:44:59.681Z,37.50
2022-08-17T08:48:23.161Z,37.78
2022-08-17T08:51:59.611Z,37.88
2022-08-17T08:55:07.994Z,37.60
2022-08-17T08:57:50.516Z,38.00
2022-08-17T09:00:23.559Z,38.06
2022-08-17T09:03:10.447Z,38.24
2022-08-17T09:06:32.013Z,38.74
2022-08-17T09:09:07.824Z,39.20
2022-08-17T09:12:03.868Z,39.48
2022-08-17T09:14:45.409Z,39.56
2022-08-17T09:17:39.318Z,39.72
2022-08-17T09:20:27.885Z,39.90
2022-08-17T09:23:42.691Z,40.12
2022-08-17T09:26:24.126Z,39.96
2022-08-17T09:29:00.589Z,39.80
2022-08-17T09:31:53.242Z,39.50
2022-08-17T09:34:55.150Z,39.02
2022-08-17T09:37:38.235Z,38.80
2022-08-17T09:40:25.022Z,38.80
2022-08-17T09:43:46.265Z,38.60
2022-08-17T09:46:22.966Z,38.90
2022-08-17T09:49:07.888Z,39.10
2022-08-17T09:51:49.908Z,39.20
2022-08-17T09:54:42.009Z,39.20
2022-08-17T09:57:37.967Z,38.68
2022-08-17T10:00:19.149Z,38.22
2022-08-17T10:03:26.098Z,37.54
2022-08-17T10:06:22.278Z,37.12
2022-08-17T10:09:08.665Z,37.20
2022-08-17T10:12:11.457Z,37.06
2022-08-17T10:14:57.956Z,37.30
2022-08-17T10:18:16.926Z,36.92
2022-08-17T10:21:21.346Z,36.90
2022-08-17T10:24:19.934Z,37.18
2022-08-17T10:26:56.019Z,37.02
2022-08-17T10:29:48.608Z,36.82
2022-08-17T10:32:41.189Z,36.40
2022-08-17T10:35:44.692Z,36.10
2022-08-17T10:38:32.017Z,35.80
2022-08-17T10:41:27.430Z,35.90
2022-08-17T10:44:38.549Z,35.80
2022-08-17T10:47:07.914Z,35.34
2022-08-17T10:49:40.922Z,35.10
2022-08-17T10:52:26.288Z,34.94
2022-08-17T10:54:58.157Z,34.80
2022-08-17T10:57:27.548Z,34.60
2022-08-17T10:59:59.124Z,34.30
2022-08-17T11:02:51.357Z,34.20
2022-08-17T11:05:44.088Z,34.00
2022-08-17T11:08:48.616Z,33.98
2022-08-17T11:11:53.772Z,34.00
2022-08-17T11:15:00.744Z,33.78
2022-08-17T11:17:50.174Z,33.60
2022-08-17T11:21:09.080Z,33.60
2022-08-17T11:24:03.145Z,33.80
2022-08-17T11:26:37.069Z,33.80
2022-08-17T11:29:19.685Z,33.90
2022-08-17T11:32:27.593Z,33.80
2022-08-17T11:35:23.218Z,33.80
2022-08-17T11:38:16.257Z,33.70
2022-08-17T11:41:27.862Z,33.70
2022-08-17T11:44:30.135Z,33.62
2022-08-17T11:48:09.454Z,33.70
2022-08-17T11:51:33.818Z,33.70
2022-08-17T11:54:31.718Z,33.80
2022-08-17T11:56:55.207Z,34.00
2022-08-17T11:59:46.320Z,34.10
2022-08-17T12:02:32.986Z,34.20
2022-08-17T12:05:21.486Z,34.30
2022-08-17T12:08:06.146Z,34.48
2022-08-17T12:10:40.515Z,34.42
2022-08-17T12:13:17.098Z,34.50
2022-08-17T12:15:50.027Z,34.50
2022-08-17T12:18:30.344Z,34.56
2022-08-17T12:21:55.489Z,34.60
2022-08-17T12:24:49.572Z,34.40
2022-08-17T12:28:05.570Z,34.50
2022-08-17T12:30:23.009Z,34.90
2022-08-17T12:32:51.900Z,35.26
2022-08-17T12:35:39.193Z,35.52
2022-08-17T12:38:26.654Z,35.80
2022-08-17T12:41:00.240Z,35.80
2022-08-17T12:43:33.330Z,35.80
2022-08-17T12:46:13.347Z,35.50
2022-08-17T12:48:58.962Z,35.30
2022-08-17T12:51:29.448Z,35.10
2022-08-17T12:53:57.991Z,34.80
2022-08-17T12:56:26.662Z,34.60
2022-08-17T12:58:56.616Z,34.60
2022-08-17T13:01:26.731Z,34.42
2022-08-17T13:03:59.882Z,34.40
2022-08-17T13:06:34.399Z,34.16
2022-08-17T13:09:35.908Z,33.80
2022-08-17T13:12:09.634Z,33.50
2022-08-17T13:14:38.321Z,33.56
2022-08-17T13:17:13.348Z,33.70
2022-08-17T13:19:50.805Z,33.70
2022-08-17T13:22:26.415Z,33.56
2022-08-17T13:25:05.775Z,33.40
2022-08-17T13:27:34.668Z,33.20
2022-08-17T13:30:12.316Z,33.10
2022-08-17T13:32:47.526Z,33.10
2022-08-17T13:35:41.035Z,33.20
2022-08-17T13:38:44.271Z,33.28
2022-08-17T13:41:38.154Z,33.30
2022-08-17T13:44:39.862Z,33.20
2022-08-17T13:47:19.441Z,33.10
2022-08-17T13:49:49.701Z,33.10
2022-08-17T13:52:44.110Z,33.00
2022-08-17T13:55:22.299Z,32.90
2022-08-17T13:58:06.788Z,32.90
2022-08-17T14:00:37.646Z,32.80
2022-08-17T14:03:06.773Z,32.80
2022-08-17T14:05:38.252Z,32.80
2022-08-17T14:08:07.442Z,32.70
2022-08-17T14:10:36.925Z,32.70
2022-08-17T14:13:07.220Z,32.70
2022-08-17T14:15:54.738Z,32.70
2022-08-17T14:18:35.679Z,32.80
2022-08-17T14:21:14.577Z,32.84
2022-08-17T14:23:49.002Z,32.90
2022-08-17T14:26:23.393Z,32.90
2022-08-17T14:28:56.187Z,32.80
2022-08-17T14:31:27.858Z,32.88
2022-08-17T14:33:56.545Z,33.00
2022-08-17T14:36:25.232Z,33.00
2022-08-17T14:38:53.919Z,32.90
2022-08-17T14:41:23.942Z,33.00
2022-08-17T14:43:53.815Z,32.90
2022-08-17T14:46:23.051Z,32.90
2022-08-17T14:48:57.161Z,32.80
2022-08-17T14:51:30.290Z,32.70
2022-08-17T14:53:59.044Z,32.70
2022-08-17T14:56:27.731Z,32.70
2022-08-17T14:59:00.412Z,32.70
2022-08-17T15:01:29.081Z,32.70
2022-08-17T15:03:57.786Z,32.74
2022-08-17T15:06:26.530Z,32.80
2022-08-17T15:08:55.266Z,32.80
2022-08-17T15:11:23.956Z,32.84
2022-08-17T15:13:53.430Z,32.90
2022-08-17T15:16:23.635Z,32.90
2022-08-17T15:18:53.082Z,32.90
2022-08-17T15:21:21.677Z,32.80
2022-08-17T15:23:51.478Z,32.80
2022-08-17T15:26:25.593Z,32.74
2022-08-17T15:28:56.532Z,32.80
2022-08-17T15:31:32.149Z,32.80
2022-08-17T15:34:01.280Z,32.78
2022-08-17T15:36:29.864Z,32.70
2022-08-17T15:38:59.426Z,32.70
2022-08-17T15:41:28.569Z,32.60
2022-08-17T15:43:57.461Z,32.50
2022-08-17T15:46:27.026Z,32.48
2022-08-17T15:49:00.567Z,32.40
2022-08-17T15:51:36.348Z,32.30
2022-08-17T15:54:18.828Z,32.30
2022-08-17T15:56:51.514Z,32.32
2022-08-17T15:59:20.096Z,32.32
2022-08-17T16:03:15.177Z,32.30
2022-08-17T16:04:43.946Z,32.30
2022-08-17T16:07:13.607Z,32.30
2022-08-17T16:09:42.287Z,32.30
2022-08-17T16:12:19.434Z,32.30
2022-08-17T16:14:50.344Z,32.20
2022-08-17T16:17:39.013Z,32.20
2022-08-17T16:20:19.987Z,32.10
2022-08-17T16:22:50.903Z,32.00
2022-08-17T16:25:52.015Z,31.90
2022-08-17T16:28:18.110Z,31.90
2022-08-17T16:30:46.946Z,31.90
2022-08-17T16:33:17.066Z,31.90
2022-08-17T16:35:45.859Z,31.80
2022-08-17T16:38:14.441Z,31.80
2022-08-17T16:40:43.126Z,31.74
2022-08-17T16:43:12.427Z,31.70
2022-08-17T16:45:42.530Z,31.60
2022-08-17T16:48:12.257Z,31.60
2022-08-17T16:50:40.845Z,31.60
2022-08-17T16:53:17.521Z,31.50
2022-08-17T16:55:49.435Z,31.50
2022-08-17T16:58:18.473Z,31.50
2022-08-17T17:00:47.882Z,31.50
2022-08-17T17:03:20.772Z,31.44
2022-08-17T17:06:13.821Z,31.40
2022-08-17T17:09:16.584Z,31.40
2022-08-17T17:11:51.143Z,31.30
2022-08-17T17:14:29.648Z,31.28
2022-08-17T17:17:18.511Z,31.20
2022-08-17T17:20:16.385Z,31.20
2022-08-17T17:23:15.685Z,31.10
2022-08-17T17:26:07.413Z,31.10
2022-08-17T17:29:18.594Z,31.04
2022-08-17T17:32:09.810Z,31.00
2022-08-17T17:34:42.293Z,30.90
2022-08-17T17:37:27.871Z,30.90
2022-08-17T17:40:06.027Z,30.90
2022-08-17T17:42:35.996Z,30.80
2022-08-17T17:45:09.561Z,30.80
2022-08-17T17:47:38.797Z,30.70
2022-08-17T17:50:09.509Z,30.60
2022-08-17T17:53:08.015Z,30.60
2022-08-17T17:56:06.113Z,30.50
2022-08-17T17:58:50.246Z,30.50
2022-08-17T18:01:37.697Z,30.38
2022-08-17T18:04:27.970Z,30.30
2022-08-17T18:07:39.969Z,30.20
2022-08-17T18:10:36.307Z,30.10
2022-08-17T18:13:33.862Z,30.08
2022-08-17T18:16:06.546Z,30.00
2022-08-17T18:18:40.146Z,29.90
2022-08-17T18:21:37.924Z,29.80
2022-08-17T18:24:10.716Z,29.80
2022-08-17T18:26:45.406Z,29.70
2022-08-17T18:29:58.042Z,29.66
2022-08-17T18:32:41.678Z,29.60
2022-08-17T18:35:10.571Z,29.50
2022-08-17T18:37:47.764Z,29.40
2022-08-17T18:40:23.641Z,29.30
2022-08-17T18:43:15.342Z,29.30
2022-08-17T18:45:53.747Z,29.20
2022-08-17T18:48:32.980Z,29.10
2022-08-17T18:51:40.725Z,29.00
2022-08-17T18:54:24.944Z,28.90
2022-08-17T18:57:00.244Z,28.80
2022-08-17T18:59:45.253Z,28.80
2022-08-17T19:05:20.617Z,28.70
2022-08-17T19:07:49.529Z,28.52
2022-08-17T19:10:32.326Z,28.40
2022-08-17T19:13:31.836Z,28.30
2022-08-17T19:16:22.233Z,28.14
2022-08-17T19:19:14.891Z,28.00
2022-08-17T19:21:55.012Z,27.90
2022-08-17T19:24:27.932Z,27.80
2022-08-17T19:27:46.429Z,27.70
2022-08-17T19:30:20.763Z,27.60
2022-08-17T19:32:50.914Z,27.50
2022-08-17T19:35:23.009Z,27.40
2022-08-17T19:38:13.373Z,27.24
2022-08-17T19:41:19.238Z,27.18
2022-08-17T19:44:13.526Z,27.10
2022-08-17T19:47:10.501Z,27.02
2022-08-17T19:49:45.913Z,27.00
2022-08-17T19:52:17.066Z,26.90
2022-08-17T19:54:59.167Z,26.80
2022-08-17T19:57:42.199Z,26.72
2022-08-17T20:00:19.726Z,26.70
2022-08-17T20:03:16.862Z,26.60
2022-08-17T20:06:12.899Z,26.50
2022-08-17T20:09:03.875Z,26.40
2022-08-17T20:12:04.306Z,26.30
2022-08-17T20:14:55.909Z,26.14
2022-08-17T20:17:32.083Z,26.00
2022-08-17T20:20:59.061Z,25.96
2022-08-17T20:23:59.275Z,25.80
2022-08-17T20:26:59.836Z,25.72
2022-08-17T20:29:37.105Z,25.70
2022-08-17T20:32:26.468Z,25.70
2022-08-17T20:35:20.041Z,25.62
2022-08-17T20:38:36.545Z,25.62
2022-08-17T20:41:30.525Z,25.60
2022-08-17T20:43:59.418Z,25.60
2022-08-17T20:47:01.300Z,25.60
2022-08-17T20:49:40.120Z,25.52
2022-08-17T20:52:16.763Z,25.50
2022-08-17T20:54:56.224Z,25.50
2022-08-17T20:57:37.297Z,25.50
2022-08-17T21:00:16.335Z,25.40
2022-08-17T21:02:49.820Z,25.30
2022-08-17T21:05:58.850Z,25.30
2022-08-17T21:08:54.989Z,25.20
2022-08-17T21:11:56.808Z,25.12
2022-08-17T21:14:36.908Z,25.06
2022-08-17T21:17:21.477Z,25.00
2022-08-17T21:20:22.730Z,24.96
2022-08-17T21:23:16.065Z,24.90
2022-08-17T21:26:12.725Z,24.90
2022-08-17T21:29:01.085Z,24.90
2022-08-17T21:31:41.433Z,24.90
2022-08-17T21:34:16.063Z,24.90
2022-08-17T21:36:46.237Z,24.90
2022-08-17T21:39:30.654Z,24.90
2022-08-17T21:42:02.662Z,24.80
2022-08-17T21:44:38.107Z,24.80
2022-08-17T21:47:24.796Z,24.78
2022-08-17T21:49:56.243Z,24.70
2022-08-17T21:52:28.067Z,24.70
2022-08-17T21:55:02.693Z,24.60
2022-08-17T21:57:35.375Z,24.60
2022-08-17T22:00:17.169Z,24.60
2022-08-17T22:02:58.860Z,24.60
2022-08-17T22:05:36.636Z,24.60
2022-08-17T22:08:19.333Z,24.58
2022-08-17T22:10:51.571Z,24.50
2022-08-17T22:13:19.991Z,24.50
2022-08-17T22:16:15.253Z,24.40
2022-08-17T22:18:59.516Z,24.40
2022-08-17T22:21:28.075Z,24.40
2022-08-17T22:24:06.796Z,24.38
2022-08-17T22:27:12.141Z,24.30
2022-08-17T22:29:44.835Z,24.30
2022-08-17T22:32:42.391Z,24.30
2022-08-17T22:35:25.207Z,24.20
2022-08-17T22:37:53.900Z,24.20
2022-08-17T22:40:32.410Z,24.10
2022-08-17T22:43:03.728Z,24.00
2022-08-17T22:45:34.186Z,23.90
2022-08-17T22:48:02.774Z,23.92
2022-08-17T22:50:33.322Z,23.96
2022-08-17T22:53:35.070Z,23.98
2022-08-17T22:56:23.836Z,23.90
2022-08-17T22:59:17.085Z,23.86
2022-08-17T23:02:14.144Z,23.70
2022-08-17T23:04:51.554Z,23.70
2022-08-17T23:07:21.936Z,23.60
2022-08-17T23:09:53.175Z,23.60
2022-08-17T23:12:27.013Z,23.50
2022-08-17T23:15:02.862Z,23.50
2022-08-17T23:17:37.098Z,23.40
2022-08-17T23:20:09.391Z,23.34
2022-08-17T23:22:51.417Z,23.30
2022-08-17T23:25:29.765Z,23.30
2022-08-17T23:28:01.877Z,23.20
2022-08-17T23:30:34.774Z,23.20
2022-08-17T23:33:14.469Z,23.20
2022-08-17T23:35:44.514Z,23.12
2022-08-17T23:38:14.532Z,23.10
2022-08-17T23:40:43.388Z,23.10
2022-08-17T23:43:24.205Z,23.10
2022-08-17T23:46:04.417Z,23.10
2022-08-17T23:48:36.828Z,23.00
2022-08-17T23:51:19.258Z,23.00
2022-08-17T23:53:55.713Z,22.90
2022-08-17T23:56:26.022Z,22.80
2022-08-17T23:58:56.112Z,22.80
